San Perlita, Texas
Current Conditions -  °F | °C
As of 9:52 AM on Thursday 18 Dec 2014 (Local Time) from KHRL Reporting Station
Overcast Overcast  
Wind Chill: 75°   Ceiling: 5500
Heat Index: 75°   Visibility: 10mi
Dew Point: 69°   Wind: 9mph
Humidity: 82%   Direction: 180°S
Pressure: 30.06"   Gusts: NA
Location:  26.5°N, 97.64°W
Report Text: KHRL 181552Z 18008KT 10SM OVC055 24/21 A3006 RMK AO2 SLP178 T02390206
Loading
Personal Weather Stations






























Interactive Weather Map New forecast layout! Learn more

10-Day Weather Forecast

Advertisements
Track Severe Weather on mobile